Premium, Kentucky
Current Conditions -  °F | °C
As of 2:35 PM on Wednesday 17 Dec 2014 (Local Time) from KLNP Reporting Station
Clear Clear  
Wind Chill: 39°   Ceiling: Unl
Heat Index: 43°   Visibility: 10mi
Dew Point: 28°   Wind: 6mph
Humidity: 57%   Direction: 240°WSW
Pressure: 30.1"   Gusts: NA
Location:  37.12°N, 82.91°W
Report Text: KLNP 171935Z AUTO 24005KT 10SM CLR 06/M02 A3010 RMK AO2
Loading
Personal Weather Stations






























Interactive Weather Map New forecast layout! Learn more

10-Day Weather Forecast

Advertisements
Track Severe Weather on mobile